sensor_id;sensor_type;location;lat;lon;timestamp;temperature;humidity
18950;DHT22;9608;49.288;8.130;2024-01-30T00:00:50;6.10;99.90
18950;DHT22;9608;49.288;8.130;2024-01-30T00:03:19;6.00;99.90
18950;DHT22;9608;49.288;8.130;2024-01-30T00:05:45;5.90;99.90
18950;DHT22;9608;49.288;8.130;2024-01-30T00:08:12;5.80;99.90
18950;DHT22;9608;49.288;8.130;2024-01-30T00:10:39;5.70;99.90
18950;DHT22;9608;49.288;8.130;2024-01-30T00:13:06;5.60;99.90
18950;DHT22;9608;49.288;8.130;2024-01-30T00:15:32;5.50;99.90
18950;DHT22;9608;49.288;8.130;2024-01-30T00:18:00;5.40;99.90
18950;DHT22;9608;49.288;8.130;2024-01-30T00:20:28;5.40;99.90
18950;DHT22;9608;49.288;8.130;2024-01-30T00:22:54;5.30;99.90
18950;DHT22;9608;49.288;8.130;2024-01-30T00:25:21;5.20;99.90
18950;DHT22;9608;49.288;8.130;2024-01-30T00:27:48;5.10;99.90
18950;DHT22;9608;49.288;8.130;2024-01-30T00:30:15;5.10;99.90
18950;DHT22;9608;49.288;8.130;2024-01-30T00:32:41;5.10;99.90
18950;DHT22;9608;49.288;8.130;2024-01-30T00:35:08;5.00;99.90
18950;DHT22;9608;49.288;8.130;2024-01-30T00:37:37;4.90;99.90
18950;DHT22;9608;49.288;8.130;2024-01-30T00:40:10;4.80;99.90
18950;DHT22;9608;49.288;8.130;2024-01-30T00:42:41;4.80;99.90
18950;DHT22;9608;49.288;8.130;2024-01-30T00:45:12;4.80;99.90
18950;DHT22;9608;49.288;8.130;2024-01-30T00:47:38;4.80;99.90
18950;DHT22;9608;49.288;8.130;2024-01-30T00:50:06;4.70;99.90
18950;DHT22;9608;49.288;8.130;2024-01-30T00:52:33;4.70;99.90
18950;DHT22;9608;49.288;8.130;2024-01-30T00:55:01;4.60;99.90
18950;DHT22;9608;49.288;8.130;2024-01-30T00:57:28;4.60;99.90
18950;DHT22;9608;49.288;8.130;2024-01-30T00:59:54;4.50;99.90
18950;DHT22;9608;49.288;8.130;2024-01-30T01:02:21;4.50;99.90
18950;DHT22;9608;49.288;8.130;2024-01-30T01:04:48;4.50;99.90
18950;DHT22;9608;49.288;8.130;2024-01-30T01:07:15;4.50;99.90
18950;DHT22;9608;49.288;8.130;2024-01-30T01:09:42;4.50;99.90
18950;DHT22;9608;49.288;8.130;2024-01-30T01:12:10;4.50;99.90
18950;DHT22;9608;49.288;8.130;2024-01-30T01:14:37;4.40;99.90
18950;DHT22;9608;49.288;8.130;2024-01-30T01:17:03;4.40;99.90
18950;DHT22;9608;49.288;8.130;2024-01-30T01:19:30;4.30;99.90
18950;DHT22;9608;49.288;8.130;2024-01-30T01:21:57;4.30;99.90
18950;DHT22;9608;49.288;8.130;2024-01-30T01:24:23;4.30;99.90
18950;DHT22;9608;49.288;8.130;2024-01-30T01:26:50;4.20;99.90
18950;DHT22;9608;49.288;8.130;2024-01-30T01:29:18;4.10;99.90
18950;DHT22;9608;49.288;8.130;2024-01-30T01:31:46;4.10;99.90
18950;DHT22;9608;49.288;8.130;2024-01-30T01:34:13;4.10;99.90
18950;DHT22;9608;49.288;8.130;2024-01-30T01:36:40;4.00;99.90
18950;DHT22;9608;49.288;8.130;2024-01-30T01:39:07;3.90;99.90
18950;DHT22;9608;49.288;8.130;2024-01-30T01:41:34;3.90;99.90
18950;DHT22;9608;49.288;8.130;2024-01-30T01:44:00;3.80;99.90
18950;DHT22;9608;49.288;8.130;2024-01-30T01:46:30;3.80;99.90
18950;DHT22;9608;49.288;8.130;2024-01-30T01:48:58;3.70;99.90
18950;DHT22;9608;49.288;8.130;2024-01-30T01:51:27;3.70;99.90
18950;DHT22;9608;49.288;8.130;2024-01-30T01:53:55;3.70;99.90
18950;DHT22;9608;49.288;8.130;2024-01-30T01:56:22;3.70;99.90
18950;DHT22;9608;49.288;8.130;2024-01-30T01:58:50;3.80;99.90
18950;DHT22;9608;49.288;8.130;2024-01-30T02:01:19;3.70;99.90
18950;DHT22;9608;49.288;8.130;2024-01-30T02:03:47;3.70;99.90
18950;DHT22;9608;49.288;8.130;2024-01-30T02:06:15;3.70;99.90
18950;DHT22;9608;49.288;8.130;2024-01-30T02:08:42;3.60;99.90
18950;DHT22;9608;49.288;8.130;2024-01-30T02:11:09;3.60;99.90
18950;DHT22;9608;49.288;8.130;2024-01-30T02:13:36;3.60;99.90
18950;DHT22;9608;49.288;8.130;2024-01-30T02:16:03;3.60;99.90
18950;DHT22;9608;49.288;8.130;2024-01-30T02:18:30;3.60;99.90
18950;DHT22;9608;49.288;8.130;2024-01-30T02:23:29;3.60;99.90
18950;DHT22;9608;49.288;8.130;2024-01-30T02:25:56;3.60;99.90
18950;DHT22;9608;49.288;8.130;2024-01-30T02:28:22;3.60;99.90
18950;DHT22;9608;49.288;8.130;2024-01-30T02:30:49;3.60;99.90
18950;DHT22;9608;49.288;8.130;2024-01-30T02:33:16;3.60;99.90
18950;DHT22;9608;49.288;8.130;2024-01-30T02:35:42;3.60;99.90
18950;DHT22;9608;49.288;8.130;2024-01-30T02:38:09;3.60;99.90
18950;DHT22;9608;49.288;8.130;2024-01-30T02:40:37;3.60;99.90
18950;DHT22;9608;49.288;8.130;2024-01-30T02:43:04;3.50;99.90
18950;DHT22;9608;49.288;8.130;2024-01-30T02:45:31;3.50;99.90
18950;DHT22;9608;49.288;8.130;2024-01-30T02:47:58;3.50;99.90
18950;DHT22;9608;49.288;8.130;2024-01-30T02:50:24;3.40;99.90
18950;DHT22;9608;49.288;8.130;2024-01-30T02:52:51;3.40;99.90
18950;DHT22;9608;49.288;8.130;2024-01-30T02:55:18;3.40;99.90
18950;DHT22;9608;49.288;8.130;2024-01-30T02:57:46;3.50;99.90
18950;DHT22;9608;49.288;8.130;2024-01-30T03:00:13;3.50;99.90
18950;DHT22;9608;49.288;8.130;2024-01-30T03:02:43;3.40;99.90
18950;DHT22;9608;49.288;8.130;2024-01-30T03:05:10;3.40;99.90
18950;DHT22;9608;49.288;8.130;2024-01-30T03:07:36;3.40;99.90
18950;DHT22;9608;49.288;8.130;2024-01-30T03:10:05;3.30;99.90
18950;DHT22;9608;49.288;8.130;2024-01-30T03:12:32;3.30;99.90
18950;DHT22;9608;49.288;8.130;2024-01-30T03:15:00;3.30;99.90
18950;DHT22;9608;49.288;8.130;2024-01-30T03:17:27;3.30;99.90
18950;DHT22;9608;49.288;8.130;2024-01-30T03:19:53;3.20;99.90
18950;DHT22;9608;49.288;8.130;2024-01-30T03:22:20;3.20;99.90
18950;DHT22;9608;49.288;8.130;2024-01-30T03:24:47;3.20;99.90
18950;DHT22;9608;49.288;8.130;2024-01-30T03:27:13;3.20;99.90
18950;DHT22;9608;49.288;8.130;2024-01-30T03:29:40;3.20;99.90
18950;DHT22;9608;49.288;8.130;2024-01-30T03:32:08;3.20;99.90
18950;DHT22;9608;49.288;8.130;2024-01-30T03:34:35;3.40;99.90
18950;DHT22;9608;49.288;8.130;2024-01-30T03:37:02;3.40;99.90
18950;DHT22;9608;49.288;8.130;2024-01-30T03:39:29;3.40;99.90
18950;DHT22;9608;49.288;8.130;2024-01-30T03:41:56;3.50;99.90
18950;DHT22;9608;49.288;8.130;2024-01-30T03:44:23;3.50;99.90
18950;DHT22;9608;49.288;8.130;2024-01-30T03:46:50;3.50;99.90
18950;DHT22;9608;49.288;8.130;2024-01-30T03:49:18;3.50;99.90
18950;DHT22;9608;49.288;8.130;2024-01-30T03:51:45;3.50;99.90
18950;DHT22;9608;49.288;8.130;2024-01-30T03:54:13;3.40;99.90
18950;DHT22;9608;49.288;8.130;2024-01-30T03:56:39;3.40;99.90
18950;DHT22;9608;49.288;8.130;2024-01-30T03:59:06;3.40;99.90
18950;DHT22;9608;49.288;8.130;2024-01-30T04:01:33;3.50;99.90
18950;DHT22;9608;49.288;8.130;2024-01-30T04:03:59;3.50;99.90
18950;DHT22;9608;49.288;8.130;2024-01-30T04:06:27;3.60;99.90
18950;DHT22;9608;49.288;8.130;2024-01-30T04:08:54;3.50;99.90
18950;DHT22;9608;49.288;8.130;2024-01-30T04:11:21;3.60;99.90
18950;DHT22;9608;49.288;8.130;2024-01-30T04:13:48;3.50;99.90
18950;DHT22;9608;49.288;8.130;2024-01-30T04:16:20;3.50;99.90
18950;DHT22;9608;49.288;8.130;2024-01-30T04:18:47;3.50;99.90
18950;DHT22;9608;49.288;8.130;2024-01-30T04:21:14;3.50;99.90
18950;DHT22;9608;49.288;8.130;2024-01-30T04:23:42;3.50;99.90
18950;DHT22;9608;49.288;8.130;2024-01-30T04:26:09;3.50;99.90
18950;DHT22;9608;49.288;8.130;2024-01-30T04:28:35;3.40;99.90
18950;DHT22;9608;49.288;8.130;2024-01-30T04:31:02;3.50;99.90
18950;DHT22;9608;49.288;8.130;2024-01-30T04:33:29;3.50;99.90
18950;DHT22;9608;49.288;8.130;2024-01-30T04:35:55;3.40;99.90
18950;DHT22;9608;49.288;8.130;2024-01-30T04:38:22;3.40;99.90
18950;DHT22;9608;49.288;8.130;2024-01-30T04:40:50;3.50;99.90
18950;DHT22;9608;49.288;8.130;2024-01-30T04:43:17;3.50;99.90
18950;DHT22;9608;49.288;8.130;2024-01-30T04:45:44;3.50;99.90
18950;DHT22;9608;49.288;8.130;2024-01-30T04:48:11;3.40;99.90
18950;DHT22;9608;49.288;8.130;2024-01-30T04:50:38;3.40;99.90
18950;DHT22;9608;49.288;8.130;2024-01-30T04:53:04;3.40;99.90
18950;DHT22;9608;49.288;8.130;2024-01-30T04:55:31;3.50;99.90
18950;DHT22;9608;49.288;8.130;2024-01-30T04:57:59;3.50;99.90
18950;DHT22;9608;49.288;8.130;2024-01-30T05:00:26;3.50;99.90
18950;DHT22;9608;49.288;8.130;2024-01-30T05:02:55;3.50;99.90
18950;DHT22;9608;49.288;8.130;2024-01-30T05:05:22;3.50;99.90
18950;DHT22;9608;49.288;8.130;2024-01-30T05:07:48;3.50;99.90
18950;DHT22;9608;49.288;8.130;2024-01-30T05:10:15;3.40;99.90
18950;DHT22;9608;49.288;8.130;2024-01-30T05:12:42;3.40;99.90
18950;DHT22;9608;49.288;8.130;2024-01-30T05:15:10;3.30;99.90
18950;DHT22;9608;49.288;8.130;2024-01-30T05:17:37;3.30;99.90
18950;DHT22;9608;49.288;8.130;2024-01-30T05:20:04;3.20;99.90
18950;DHT22;9608;49.288;8.130;2024-01-30T05:22:31;3.20;99.90
18950;DHT22;9608;49.288;8.130;2024-01-30T05:24:58;3.20;99.90
18950;DHT22;9608;49.288;8.130;2024-01-30T05:27:23;3.20;99.90
18950;DHT22;9608;49.288;8.130;2024-01-30T05:29:50;3.20;99.90
18950;DHT22;9608;49.288;8.130;2024-01-30T05:32:18;3.10;99.90
18950;DHT22;9608;49.288;8.130;2024-01-30T05:34:45;3.10;99.90
18950;DHT22;9608;49.288;8.130;2024-01-30T05:37:12;3.10;99.90
18950;DHT22;9608;49.288;8.130;2024-01-30T05:39:42;3.10;99.90
18950;DHT22;9608;49.288;8.130;2024-01-30T05:42:09;3.10;99.90
18950;DHT22;9608;49.288;8.130;2024-01-30T05:44:36;3.10;99.90
18950;DHT22;9608;49.288;8.130;2024-01-30T05:47:03;3.10;99.90
18950;DHT22;9608;49.288;8.130;2024-01-30T05:49:31;3.20;99.90
18950;DHT22;9608;49.288;8.130;2024-01-30T05:51:58;3.20;99.90
18950;DHT22;9608;49.288;8.130;2024-01-30T05:54:24;3.20;99.90
18950;DHT22;9608;49.288;8.130;2024-01-30T05:56:51;3.20;99.90
18950;DHT22;9608;49.288;8.130;2024-01-30T05:59:17;3.30;99.90
18950;DHT22;9608;49.288;8.130;2024-01-30T06:01:45;3.30;99.90
18950;DHT22;9608;49.288;8.130;2024-01-30T06:04:13;3.40;99.90
18950;DHT22;9608;49.288;8.130;2024-01-30T06:06:41;3.40;99.90
18950;DHT22;9608;49.288;8.130;2024-01-30T06:09:07;3.40;99.90
18950;DHT22;9608;49.288;8.130;2024-01-30T06:11:34;3.50;99.90
18950;DHT22;9608;49.288;8.130;2024-01-30T06:14:01;3.50;99.90
18950;DHT22;9608;49.288;8.130;2024-01-30T06:16:28;3.60;99.90
18950;DHT22;9608;49.288;8.130;2024-01-30T06:18:55;3.60;99.90
18950;DHT22;9608;49.288;8.130;2024-01-30T06:21:21;3.70;99.90
18950;DHT22;9608;49.288;8.130;2024-01-30T06:23:49;3.70;99.90
18950;DHT22;9608;49.288;8.130;2024-01-30T06:26:16;3.60;99.90
18950;DHT22;9608;49.288;8.130;2024-01-30T06:28:43;3.50;99.90
18950;DHT22;9608;49.288;8.130;2024-01-30T06:31:10;3.50;99.90
18950;DHT22;9608;49.288;8.130;2024-01-30T06:33:37;3.40;99.90
18950;DHT22;9608;49.288;8.130;2024-01-30T06:36:04;3.40;99.90
18950;DHT22;9608;49.288;8.130;2024-01-30T06:38:31;3.40;99.90
18950;DHT22;9608;49.288;8.130;2024-01-30T06:40:59;3.40;99.90
18950;DHT22;9608;49.288;8.130;2024-01-30T06:43:26;3.50;99.90
18950;DHT22;9608;49.288;8.130;2024-01-30T06:45:53;3.50;99.90
18950;DHT22;9608;49.288;8.130;2024-01-30T06:48:20;3.40;99.90
18950;DHT22;9608;49.288;8.130;2024-01-30T06:50:47;3.00;99.90
18950;DHT22;9608;49.288;8.130;2024-01-30T06:53:14;2.80;99.90
18950;DHT22;9608;49.288;8.130;2024-01-30T06:55:41;2.60;99.90
18950;DHT22;9608;49.288;8.130;2024-01-30T06:58:09;2.40;99.90
18950;DHT22;9608;49.288;8.130;2024-01-30T07:00:36;2.40;99.90
18950;DHT22;9608;49.288;8.130;2024-01-30T07:03:03;2.40;99.90
18950;DHT22;9608;49.288;8.130;2024-01-30T07:05:31;2.40;99.90
18950;DHT22;9608;49.288;8.130;2024-01-30T07:07:58;2.40;99.90
18950;DHT22;9608;49.288;8.130;2024-01-30T07:10:25;2.30;99.90
18950;DHT22;9608;49.288;8.130;2024-01-30T07:12:51;2.40;99.90
18950;DHT22;9608;49.288;8.130;2024-01-30T07:15:20;2.50;99.90
18950;DHT22;9608;49.288;8.130;2024-01-30T07:17:47;2.50;99.90
18950;DHT22;9608;49.288;8.130;2024-01-30T07:20:14;2.40;99.90
18950;DHT22;9608;49.288;8.130;2024-01-30T07:22:40;2.50;99.90
18950;DHT22;9608;49.288;8.130;2024-01-30T07:25:08;2.60;99.90
18950;DHT22;9608;49.288;8.130;2024-01-30T07:27:35;2.70;99.90
18950;DHT22;9608;49.288;8.130;2024-01-30T07:30:03;2.80;99.90
18950;DHT22;9608;49.288;8.130;2024-01-30T07:32:31;2.80;99.90
18950;DHT22;9608;49.288;8.130;2024-01-30T07:34:58;2.70;99.90
18950;DHT22;9608;49.288;8.130;2024-01-30T07:37:25;2.70;99.90
18950;DHT22;9608;49.288;8.130;2024-01-30T07:39:54;2.70;99.90
18950;DHT22;9608;49.288;8.130;2024-01-30T07:42:21;2.70;99.90
18950;DHT22;9608;49.288;8.130;2024-01-30T07:44:47;2.90;99.90
18950;DHT22;9608;49.288;8.130;2024-01-30T07:47:14;3.00;99.90
18950;DHT22;9608;49.288;8.130;2024-01-30T07:49:43;3.20;99.90
18950;DHT22;9608;49.288;8.130;2024-01-30T07:52:12;3.70;99.90
18950;DHT22;9608;49.288;8.130;2024-01-30T07:54:39;4.10;99.90
18950;DHT22;9608;49.288;8.130;2024-01-30T07:57:07;4.50;99.90
18950;DHT22;9608;49.288;8.130;2024-01-30T07:59:34;5.00;99.90
18950;DHT22;9608;49.288;8.130;2024-01-30T08:02:00;5.30;99.90
18950;DHT22;9608;49.288;8.130;2024-01-30T08:04:28;5.50;99.90
18950;DHT22;9608;49.288;8.130;2024-01-30T08:06:57;5.60;99.90
18950;DHT22;9608;49.288;8.130;2024-01-30T08:09:25;5.40;99.90
18950;DHT22;9608;49.288;8.130;2024-01-30T08:11:52;5.30;99.90
18950;DHT22;9608;49.288;8.130;2024-01-30T08:14:18;5.20;99.90
18950;DHT22;9608;49.288;8.130;2024-01-30T08:16:45;5.10;99.90
18950;DHT22;9608;49.288;8.130;2024-01-30T08:19:12;5.00;99.90
18950;DHT22;9608;49.288;8.130;2024-01-30T08:21:39;5.10;99.90
18950;DHT22;9608;49.288;8.130;2024-01-30T08:24:08;5.20;99.90
18950;DHT22;9608;49.288;8.130;2024-01-30T08:26:35;5.30;99.90
18950;DHT22;9608;49.288;8.130;2024-01-30T08:29:02;5.40;99.90
18950;DHT22;9608;49.288;8.130;2024-01-30T08:31:29;5.50;99.90
18950;DHT22;9608;49.288;8.130;2024-01-30T08:33:56;5.70;99.90
18950;DHT22;9608;49.288;8.130;2024-01-30T08:36:25;5.80;99.90
18950;DHT22;9608;49.288;8.130;2024-01-30T08:38:54;5.90;99.90
18950;DHT22;9608;49.288;8.130;2024-01-30T08:41:32;5.90;99.90
18950;DHT22;9608;49.288;8.130;2024-01-30T08:43:59;6.00;99.90
18950;DHT22;9608;49.288;8.130;2024-01-30T08:46:29;6.20;99.90
18950;DHT22;9608;49.288;8.130;2024-01-30T08:48:56;6.20;99.90
18950;DHT22;9608;49.288;8.130;2024-01-30T08:51:23;6.30;99.90
18950;DHT22;9608;49.288;8.130;2024-01-30T08:53:50;6.40;99.90
18950;DHT22;9608;49.288;8.130;2024-01-30T08:56:18;6.50;99.90
18950;DHT22;9608;49.288;8.130;2024-01-30T08:58:47;6.50;99.90
18950;DHT22;9608;49.288;8.130;2024-01-30T09:01:14;6.60;99.90
18950;DHT22;9608;49.288;8.130;2024-01-30T09:03:42;6.70;99.90
18950;DHT22;9608;49.288;8.130;2024-01-30T09:06:11;6.80;99.90
18950;DHT22;9608;49.288;8.130;2024-01-30T09:09:00;7.00;99.90
18950;DHT22;9608;49.288;8.130;2024-01-30T09:11:51;7.30;99.90
18950;DHT22;9608;49.288;8.130;2024-01-30T09:14:44;7.60;99.90
18950;DHT22;9608;49.288;8.130;2024-01-30T09:17:13;8.00;99.90
18950;DHT22;9608;49.288;8.130;2024-01-30T09:19:43;8.30;99.90
18950;DHT22;9608;49.288;8.130;2024-01-30T09:25:32;8.90;99.90
18950;DHT22;9608;49.288;8.130;2024-01-30T09:28:02;9.30;99.90
18950;DHT22;9608;49.288;8.130;2024-01-30T09:30:34;9.50;99.90
18950;DHT22;9608;49.288;8.130;2024-01-30T09:33:01;9.70;99.90
18950;DHT22;9608;49.288;8.130;2024-01-30T09:35:28;9.90;99.90
18950;DHT22;9608;49.288;8.130;2024-01-30T09:37:55;10.00;99.90
18950;DHT22;9608;49.288;8.130;2024-01-30T09:40:23;10.20;99.90
18950;DHT22;9608;49.288;8.130;2024-01-30T09:42:51;10.30;99.90
18950;DHT22;9608;49.288;8.130;2024-01-30T09:45:19;10.40;99.90
18950;DHT22;9608;49.288;8.130;2024-01-30T09:47:49;10.60;99.90
18950;DHT22;9608;49.288;8.130;2024-01-30T09:50:17;10.80;99.90
18950;DHT22;9608;49.288;8.130;2024-01-30T09:52:47;11.00;99.90
18950;DHT22;9608;49.288;8.130;2024-01-30T09:55:16;11.20;99.90
18950;DHT22;9608;49.288;8.130;2024-01-30T09:57:43;11.30;99.90
18950;DHT22;9608;49.288;8.130;2024-01-30T10:00:13;11.40;99.90
18950;DHT22;9608;49.288;8.130;2024-01-30T10:02:42;11.50;99.90
18950;DHT22;9608;49.288;8.130;2024-01-30T10:05:15;11.60;99.90
18950;DHT22;9608;49.288;8.130;2024-01-30T10:07:52;11.70;99.90
18950;DHT22;9608;49.288;8.130;2024-01-30T10:10:21;11.90;99.90
18950;DHT22;9608;49.288;8.130;2024-01-30T10:12:49;12.00;99.90
18950;DHT22;9608;49.288;8.130;2024-01-30T10:15:17;11.90;99.90
18950;DHT22;9608;49.288;8.130;2024-01-30T10:17:45;11.80;99.90
18950;DHT22;9608;49.288;8.130;2024-01-30T10:20:31;11.80;99.90
18950;DHT22;9608;49.288;8.130;2024-01-30T10:22:59;11.80;99.90
18950;DHT22;9608;49.288;8.130;2024-01-30T10:25:28;11.60;99.90
18950;DHT22;9608;49.288;8.130;2024-01-30T10:27:57;11.60;99.90
18950;DHT22;9608;49.288;8.130;2024-01-30T10:30:28;11.50;99.90
18950;DHT22;9608;49.288;8.130;2024-01-30T10:36:05;11.60;99.90
18950;DHT22;9608;49.288;8.130;2024-01-30T10:38:33;11.70;99.90
18950;DHT22;9608;49.288;8.130;2024-01-30T10:41:01;11.70;99.90
18950;DHT22;9608;49.288;8.130;2024-01-30T10:43:31;11.50;99.90
18950;DHT22;9608;49.288;8.130;2024-01-30T10:46:06;11.40;99.90
18950;DHT22;9608;49.288;8.130;2024-01-30T10:48:37;11.40;99.90
18950;DHT22;9608;49.288;8.130;2024-01-30T10:51:24;11.10;99.90
18950;DHT22;9608;49.288;8.130;2024-01-30T10:53:56;10.90;99.90
18950;DHT22;9608;49.288;8.130;2024-01-30T10:56:25;11.10;99.90
18950;DHT22;9608;49.288;8.130;2024-01-30T10:58:53;11.10;99.90
18950;DHT22;9608;49.288;8.130;2024-01-30T11:01:27;11.00;99.90
18950;DHT22;9608;49.288;8.130;2024-01-30T11:03:56;11.00;99.90
18950;DHT22;9608;49.288;8.130;2024-01-30T11:06:25;11.00;99.90
18950;DHT22;9608;49.288;8.130;2024-01-30T11:09:02;10.90;99.90
18950;DHT22;9608;49.288;8.130;2024-01-30T11:12:02;11.00;99.90
18950;DHT22;9608;49.288;8.130;2024-01-30T11:15:02;11.10;99.90
18950;DHT22;9608;49.288;8.130;2024-01-30T11:17:47;11.00;99.90
18950;DHT22;9608;49.288;8.130;2024-01-30T11:20:30;11.00;99.90
18950;DHT22;9608;49.288;8.130;2024-01-30T11:39:37;10.80;99.90
18950;DHT22;9608;49.288;8.130;2024-01-30T11:42:10;10.90;99.90
18950;DHT22;9608;49.288;8.130;2024-01-30T11:44:38;11.00;99.90
18950;DHT22;9608;49.288;8.130;2024-01-30T11:47:05;11.30;99.90
18950;DHT22;9608;49.288;8.130;2024-01-30T11:49:34;11.60;99.90
18950;DHT22;9608;49.288;8.130;2024-01-30T11:52:12;11.60;99.90
18950;DHT22;9608;49.288;8.130;2024-01-30T11:54:46;11.50;99.90
18950;DHT22;9608;49.288;8.130;2024-01-30T11:57:26;11.60;99.90
18950;DHT22;9608;49.288;8.130;2024-01-30T11:59:53;11.70;99.90
18950;DHT22;9608;49.288;8.130;2024-01-30T12:02:20;11.70;99.90
18950;DHT22;9608;49.288;8.130;2024-01-30T12:04:47;11.70;99.90
18950;DHT22;9608;49.288;8.130;2024-01-30T12:07:15;11.70;99.90
18950;DHT22;9608;49.288;8.130;2024-01-30T12:09:57;11.80;99.90
18950;DHT22;9608;49.288;8.130;2024-01-30T12:12:38;11.70;99.90
18950;DHT22;9608;49.288;8.130;2024-01-30T12:15:08;11.70;99.90
18950;DHT22;9608;49.288;8.130;2024-01-30T12:17:48;11.70;99.90
18950;DHT22;9608;49.288;8.130;2024-01-30T12:20:17;11.70;99.90
18950;DHT22;9608;49.288;8.130;2024-01-30T12:28:58;12.20;99.90
18950;DHT22;9608;49.288;8.130;2024-01-30T12:31:28;12.20;99.90
18950;DHT22;9608;49.288;8.130;2024-01-30T12:33:55;12.10;99.90
18950;DHT22;9608;49.288;8.130;2024-01-30T12:36:22;12.00;99.90
18950;DHT22;9608;49.288;8.130;2024-01-30T12:38:50;12.10;99.90
18950;DHT22;9608;49.288;8.130;2024-01-30T12:41:19;12.30;99.90
18950;DHT22;9608;49.288;8.130;2024-01-30T12:43:46;12.30;99.90
18950;DHT22;9608;49.288;8.130;2024-01-30T12:46:17;12.40;99.90
18950;DHT22;9608;49.288;8.130;2024-01-30T12:48:44;12.50;99.90
18950;DHT22;9608;49.288;8.130;2024-01-30T12:51:46;12.50;99.90
18950;DHT22;9608;49.288;8.130;2024-01-30T12:54:17;12.60;99.90
18950;DHT22;9608;49.288;8.130;2024-01-30T12:56:44;12.50;99.90
18950;DHT22;9608;49.288;8.130;2024-01-30T12:59:11;12.60;99.90
18950;DHT22;9608;49.288;8.130;2024-01-30T13:01:39;12.60;99.90
18950;DHT22;9608;49.288;8.130;2024-01-30T13:04:06;12.70;99.90
18950;DHT22;9608;49.288;8.130;2024-01-30T13:06:33;12.70;99.90
18950;DHT22;9608;49.288;8.130;2024-01-30T13:09:00;12.80;99.90
18950;DHT22;9608;49.288;8.130;2024-01-30T13:11:26;12.90;99.90
18950;DHT22;9608;49.288;8.130;2024-01-30T13:13:53;13.00;99.90
18950;DHT22;9608;49.288;8.130;2024-01-30T13:16:20;13.00;99.90
18950;DHT22;9608;49.288;8.130;2024-01-30T13:18:48;13.00;99.90
18950;DHT22;9608;49.288;8.130;2024-01-30T13:21:15;13.00;99.90
18950;DHT22;9608;49.288;8.130;2024-01-30T13:23:42;13.10;99.90
18950;DHT22;9608;49.288;8.130;2024-01-30T13:26:10;13.20;99.90
18950;DHT22;9608;49.288;8.130;2024-01-30T13:28:37;13.30;99.90
18950;DHT22;9608;49.288;8.130;2024-01-30T13:31:04;13.30;99.90
18950;DHT22;9608;49.288;8.130;2024-01-30T13:33:32;13.30;99.90
18950;DHT22;9608;49.288;8.130;2024-01-30T13:36:04;13.10;99.90
18950;DHT22;9608;49.288;8.130;2024-01-30T13:38:31;13.00;99.90
18950;DHT22;9608;49.288;8.130;2024-01-30T13:40:58;12.90;99.90
18950;DHT22;9608;49.288;8.130;2024-01-30T13:43:25;12.90;99.90
18950;DHT22;9608;49.288;8.130;2024-01-30T13:45:52;13.00;99.90
18950;DHT22;9608;49.288;8.130;2024-01-30T13:48:19;13.00;99.90
18950;DHT22;9608;49.288;8.130;2024-01-30T13:50:46;13.10;99.90
18950;DHT22;9608;49.288;8.130;2024-01-30T13:53:14;13.10;99.90
18950;DHT22;9608;49.288;8.130;2024-01-30T13:55:41;13.10;99.90
18950;DHT22;9608;49.288;8.130;2024-01-30T13:58:08;13.20;99.90
18950;DHT22;9608;49.288;8.130;2024-01-30T14:00:34;13.20;99.90
18950;DHT22;9608;49.288;8.130;2024-01-30T14:03:01;13.30;99.90
18950;DHT22;9608;49.288;8.130;2024-01-30T14:05:29;13.40;99.90
18950;DHT22;9608;49.288;8.130;2024-01-30T14:07:56;13.30;99.90
18950;DHT22;9608;49.288;8.130;2024-01-30T14:10:25;13.20;99.90
18950;DHT22;9608;49.288;8.130;2024-01-30T14:12:52;13.10;99.90
18950;DHT22;9608;49.288;8.130;2024-01-30T14:15:19;12.90;99.90
18950;DHT22;9608;49.288;8.130;2024-01-30T14:17:47;12.90;99.90
18950;DHT22;9608;49.288;8.130;2024-01-30T14:20:15;13.00;99.90
18950;DHT22;9608;49.288;8.130;2024-01-30T14:22:43;12.80;99.90
18950;DHT22;9608;49.288;8.130;2024-01-30T14:25:09;12.60;99.90
18950;DHT22;9608;49.288;8.130;2024-01-30T14:27:37;12.30;99.90
18950;DHT22;9608;49.288;8.130;2024-01-30T14:30:05;12.30;99.90
18950;DHT22;9608;49.288;8.130;2024-01-30T14:32:33;12.10;99.90
18950;DHT22;9608;49.288;8.130;2024-01-30T14:35:00;12.20;99.90
18950;DHT22;9608;49.288;8.130;2024-01-30T14:37:27;12.20;99.90
18950;DHT22;9608;49.288;8.130;2024-01-30T14:39:55;12.20;99.90
18950;DHT22;9608;49.288;8.130;2024-01-30T14:42:22;12.10;99.90
18950;DHT22;9608;49.288;8.130;2024-01-30T14:44:50;12.10;99.90
18950;DHT22;9608;49.288;8.130;2024-01-30T14:47:17;12.10;99.90
18950;DHT22;9608;49.288;8.130;2024-01-30T14:49:43;12.10;99.90
18950;DHT22;9608;49.288;8.130;2024-01-30T14:52:10;12.10;99.90
18950;DHT22;9608;49.288;8.130;2024-01-30T14:54:37;12.00;99.90
18950;DHT22;9608;49.288;8.130;2024-01-30T14:57:04;11.80;99.90
18950;DHT22;9608;49.288;8.130;2024-01-30T14:59:31;11.70;99.90
18950;DHT22;9608;49.288;8.130;2024-01-30T15:02:01;11.60;99.90
18950;DHT22;9608;49.288;8.130;2024-01-30T15:04:27;11.60;99.90
18950;DHT22;9608;49.288;8.130;2024-01-30T15:06:54;11.50;99.90
18950;DHT22;9608;49.288;8.130;2024-01-30T15:09:21;11.40;99.90
18950;DHT22;9608;49.288;8.130;2024-01-30T15:11:48;11.40;99.90
18950;DHT22;9608;49.288;8.130;2024-01-30T15:14:15;11.40;99.90
18950;DHT22;9608;49.288;8.130;2024-01-30T15:16:42;11.30;99.90
18950;DHT22;9608;49.288;8.130;2024-01-30T15:19:10;11.30;99.90
18950;DHT22;9608;49.288;8.130;2024-01-30T15:21:37;11.30;99.90
18950;DHT22;9608;49.288;8.130;2024-01-30T15:24:04;11.20;99.90
18950;DHT22;9608;49.288;8.130;2024-01-30T15:26:31;11.20;99.90
18950;DHT22;9608;49.288;8.130;2024-01-30T15:28:58;11.10;99.90
18950;DHT22;9608;49.288;8.130;2024-01-30T15:31:25;11.00;99.90
18950;DHT22;9608;49.288;8.130;2024-01-30T15:33:51;11.00;99.90
18950;DHT22;9608;49.288;8.130;2024-01-30T15:36:19;10.90;99.90
18950;DHT22;9608;49.288;8.130;2024-01-30T15:38:46;10.90;99.90
18950;DHT22;9608;49.288;8.130;2024-01-30T15:41:13;11.00;99.90
18950;DHT22;9608;49.288;8.130;2024-01-30T15:43:39;10.80;99.90
18950;DHT22;9608;49.288;8.130;2024-01-30T15:46:06;10.80;99.90
18950;DHT22;9608;49.288;8.130;2024-01-30T15:48:33;10.80;99.90
18950;DHT22;9608;49.288;8.130;2024-01-30T15:50:59;10.90;99.90
18950;DHT22;9608;49.288;8.130;2024-01-30T15:53:28;10.80;99.90
18950;DHT22;9608;49.288;8.130;2024-01-30T15:55:54;10.90;99.90
18950;DHT22;9608;49.288;8.130;2024-01-30T15:58:21;10.90;99.90
18950;DHT22;9608;49.288;8.130;2024-01-30T16:00:48;10.90;99.90
18950;DHT22;9608;49.288;8.130;2024-01-30T16:03:14;10.90;99.90
18950;DHT22;9608;49.288;8.130;2024-01-30T16:05:41;11.00;99.90
18950;DHT22;9608;49.288;8.130;2024-01-30T16:08:08;11.10;99.90
18950;DHT22;9608;49.288;8.130;2024-01-30T16:10:36;11.00;99.90
18950;DHT22;9608;49.288;8.130;2024-01-30T16:13:03;10.90;99.90
18950;DHT22;9608;49.288;8.130;2024-01-30T16:15:29;10.90;99.90
18950;DHT22;9608;49.288;8.130;2024-01-30T16:17:56;11.20;99.90
18950;DHT22;9608;49.288;8.130;2024-01-30T16:20:23;11.40;99.90
18950;DHT22;9608;49.288;8.130;2024-01-30T16:22:49;11.30;99.90
18950;DHT22;9608;49.288;8.130;2024-01-30T16:25:18;11.20;99.90
18950;DHT22;9608;49.288;8.130;2024-01-30T16:27:47;11.40;99.90
18950;DHT22;9608;49.288;8.130;2024-01-30T16:30:13;11.30;99.90
18950;DHT22;9608;49.288;8.130;2024-01-30T16:32:43;11.30;99.90